Latest Weather Observations for Merriwa

IDN60801

Issued at 7:52 am EDT Saturday 28 November 2020 (issued every 10 minutes, with the page automatically refreshed every 10 minutes)

About weather observations | Map of weather stations | Latest weather observations for NSW | Other Formats
Station Details ID: 061287 Name: MERRIWA (ROSCOMMON) Lat: -32.19 Lon: 150.17 Height: 375.0 m
Data from the previous 72 hours. | See also: Recent months at Merriwa
Date/Time
EDT
Temp
°C
App
Temp
°C
Dew
Point
°C
Rel
Hum
%
Delta-T
°C
Wind Press
QNH
hPa
Press
MSL
hPa
Rain since
9am
mm
Dir  Spd
km/h
Gust
km/h
Spd
kts
Gust
kts
28/07:30am 21.4 23.3 17.6 79 2.4 NW 4 7 2 4 1014.9 1013.7 0.0
28/07:00am 18.1 18.7 15.9 87 1.3 NNE 7 9 4 5 1014.5 1013.2 0.0
28/06:30am 16.3 16.7 15.2 93 0.6 WNW 7 9 4 5 1014.2 1013.0 0.0
28/06:00am 15.2 14.8 14.2 94 0.6 W 9 11 5 6 1013.9 1012.7 0.0
28/05:30am 15.1 15.1 14.1 94 0.6 W 7 9 4 5 1013.6 1012.4 0.0
28/05:00am 14.9 15.8 13.9 94 0.6 N 2 6 1 3 1013.2 1012.0 0.0
28/04:30am 15.5 16.8 14.0 91 0.9 CALM 0 0 0 0 1013.0 1011.8 0.0
28/04:00am 15.9 17.2 14.1 89 1.0 CALM 0 0 0 0 1013.0 1011.8 0.0
28/03:30am 16.3 16.9 14.3 88 1.2 WNW 4 7 2 4 1013.1 1011.9 0.0
28/03:00am 17.2 17.6 15.2 88 1.2 NW 7 9 4 5 1013.4 1012.2 0.0
28/02:30am 16.7 16.4 14.5 87 1.3 WSW 9 9 5 5 1013.6 1012.4 0.0
28/02:00am 17.1 17.4 14.6 85 1.5 W 6 7 3 4 1013.8 1012.6 0.0
28/01:30am 17.8 18.5 15.6 87 1.3 WNW 6 6 3 3 1014.0 1012.8 0.0
28/01:00am 17.1 17.3 14.2 83 1.7 SSW 6 9 3 5 1014.5 1013.2 0.0
28/12:30am 18.0 18.5 14.9 82 1.8 SW 6 9 3 5 1014.6 1013.3 0.0
28/12:00am 19.6 21.3 15.3 76 2.6 CALM 0 6 0 3 1014.7 1013.4 0.0
 
Date/Time
EDT
Temp
°C
App
Temp
°C
Dew
Point
°C
Rel
Hum
%
Delta-T
°C
Wind Press
QNH
hPa
Press
MSL
hPa
Rain since
9am
mm
Dir  Spd
km/h
Gust
km/h
Spd
kts
Gust
kts
27/11:30pm 21.2 21.8 15.7 71 3.3 NNE 7 9 4 5 1014.9 1013.7 0.0
27/11:00pm 21.1 20.8 14.5 66 3.9 NE 9 11 5 6 1015.0 1013.8 0.0
27/10:30pm 22.8 23.3 15.6 64 4.4 NE 7 9 4 5 1015.0 1013.8 0.0
27/10:00pm 22.1 22.0 15.0 64 4.3 NNE 9 9 5 5 1014.8 1013.6 0.0
27/09:30pm 23.2 23.6 15.3 61 4.8 NE 7 7 4 4 1014.7 1013.4 0.0
27/09:00pm 23.3 23.6 14.6 58 5.2 E 6 7 3 4 1014.5 1013.2 0.0
27/08:30pm 25.2 24.8 15.2 54 6.1 ESE 11 13 6 7 1014.3 1013.1 0.0
27/08:00pm 26.9 26.9 15.3 49 7.2 ESE 9 11 5 6 1014.1 1012.9 0.0
27/07:30pm 28.6 28.4 14.8 43 8.5 ESE 9 11 5 6 1013.8 1012.6 0.0
27/07:00pm 31.7 31.8 14.4 35 10.7 E 7 13 4 7 1013.6 1012.4 0.0
27/06:30pm 32.8 32.0 13.9 31 11.7 ESE 11 15 6 8 1013.5 1012.3 0.0
27/06:00pm 33.0 32.6 14.1 32 11.7 ENE 9 17 5 9 1013.3 1012.1 0.0
27/05:30pm 33.3 33.1 14.8 32 11.6 N 9 13 5 7 1013.5 1012.3 0.0
27/05:00pm 33.6 33.9 15.1 33 11.6 E 7 17 4 9 1013.5 1012.3 0.0
27/04:30pm 33.6 33.9 15.1 33 11.6 NE 7 20 4 11 1013.6 1012.4 0.0
27/04:00pm 33.4 33.0 14.0 31 12.0 WSW 9 15 5 8 1014.0 1012.8 0.0
27/03:30pm 32.7 31.8 14.8 34 11.2 NNE 13 20 7 11 1014.5 1013.2 0.0
27/03:00pm 31.9 31.1 15.0 36 10.6 E 13 20 7 11 1015.0 1013.8 0.0
27/02:30pm 31.8 31.9 16.5 39 9.8 E 11 20 6 11 1015.5 1014.3 0.0
27/02:00pm 30.6 30.1 15.8 40 9.3 E 13 22 7 12 1016.1 1014.9 0.0
27/01:30pm 29.6 29.3 16.4 45 8.4 ESE 13 20 7 11 1016.6 1015.4 0.0
27/01:00pm 29.2 29.8 16.7 46 7.9 E 9 17 5 9 1017.1 1016.0 0.0
27/12:30pm 27.7 27.7 17.3 53 6.6 ESE 13 20 7 11 1017.7 1016.5 0.0
27/12:00pm 26.6 26.2 16.2 52 6.5 E 13 22 7 12 1018.4 1017.2 0.0
27/11:30am 25.1 25.2 16.5 59 5.4 SE 11 20 6 11 1018.7 1017.5 0.0
27/11:00am 25.0 24.6 17.2 62 4.9 E 15 24 8 13 1018.8 1017.6 0.0
27/10:30am 23.4 23.0 16.2 64 4.4 E 13 24 7 13 1019.0 1017.8 0.0
27/10:00am 21.9 20.7 15.0 65 4.1 E 15 26 8 14 1019.3 1018.1 0.0
27/09:30am 21.8 21.1 16.5 72 3.3 ESE 15 26 8 14 1019.5 1018.4 0.0
27/09:00am 20.6 19.0 16.0 75 2.8 E 19 26 10 14 1019.7 1018.6 0.0
27/08:30am 19.9 17.8 15.3 75 2.8 ESE 20 32 11 17 1019.5 1018.4 0.0
27/08:00am 19.8 18.5 15.7 77 2.5 E 17 24 9 13 1019.1 1017.9 0.0
27/07:30am 19.1 17.3 15.6 80 2.1 E 19 28 10 15 1018.8 1017.6 0.0
27/07:00am 18.8 16.8 15.5 81 2.0 ESE 20 28 11 15 1018.6 1017.4 0.0
27/06:30am 18.6 17.2 15.5 82 1.9 E 17 24 9 13 1018.4 1017.2 0.0
27/06:00am 18.6 17.2 15.5 82 1.9 ESE 17 24 9 13 1018.1 1016.9 0.0
27/05:30am 18.5 16.7 15.6 83 1.7 ESE 19 22 10 12 1017.9 1016.7 0.0
27/05:00am 18.2 16.8 15.5 84 1.6 E 17 28 9 15 1017.6 1016.4 0.0
27/04:30am 18.3 17.9 15.2 82 1.8 E 11 19 6 10 1017.4 1016.2 0.0
27/04:00am 18.9 16.9 15.6 81 2.0 E 20 28 11 15 1016.8 1015.6 0.0
27/03:30am 19.4 19.0 15.3 77 2.5 ENE 11 17 6 9 1016.7 1015.5 0.0
27/03:00am 20.1 19.3 15.1 73 3.0 ENE 13 22 7 12 1016.0 1014.8 0.0
27/02:30am 21.5 20.3 15.1 67 3.9 ESE 15 20 8 11 1015.6 1014.4 0.0
27/02:00am 22.5 20.9 15.1 63 4.5 ESE 17 26 9 14 1015.3 1014.1 0.0
27/01:30am 21.8 20.7 15.2 66 4.0 ESE 15 20 8 11 1015.1 1013.9 0.0
27/01:00am 21.8 21.0 16.1 70 3.5 ESE 15 20 8 11 1015.1 1013.9 0.0
27/12:30am 20.3 20.1 15.7 75 2.8 ESE 11 15 6 8 1015.1 1013.9 0.0
27/12:00am 19.2 18.9 13.4 69 3.4 ENE 7 7 4 4 1014.9 1013.7 0.0
 
Date/Time
EDT
Temp
°C
App
Temp
°C
Dew
Point
°C
Rel
Hum
%
Delta-T
°C
Wind Press
QNH
hPa
Press
MSL
hPa
Rain since
9am
mm
Dir  Spd
km/h
Gust
km/h
Spd
kts
Gust
kts
26/11:30pm 21.0 20.7 14.4 66 3.9 SE 9 11 5 6 1014.7 1013.4 0.0
26/11:00pm 20.9 21.1 14.3 66 3.9 E 6 9 3 5 1014.5 1013.2 0.0
26/10:30pm 20.1 20.0 13.3 65 3.9 NE 6 7 3 4 1014.0 1012.8 0.0
26/10:00pm 21.4 22.5 13.6 61 4.6 CALM 0 0 0 0 1013.7 1012.5 0.0
26/09:30pm 21.8 22.8 13.2 58 5.0 CALM 0 0 0 0 1013.3 1012.1 0.0
26/09:00pm 22.9 23.9 13.1 54 5.7 CALM 0 0 0 0 1013.0 1011.8 0.0
26/08:30pm 24.2 25.3 13.4 51 6.4 CALM 0 0 0 0 1012.7 1011.5 0.0
26/08:00pm 26.9 27.6 12.2 40 8.6 CALM 0 0 0 0 1012.4 1011.1 0.0
26/07:30pm 30.0 29.4 12.4 34 10.5 WSW 7 9 4 5 1012.0 1010.7 0.0
26/07:00pm 30.1 29.0 12.1 33 10.7 SW 9 13 5 7 1011.5 1010.3 0.0
26/06:30pm 31.7 30.2 13.0 32 11.3 SW 13 19 7 10 1011.3 1010.1 0.0
26/06:00pm 32.5 31.5 12.2 29 12.2 S 9 13 5 7 1011.0 1009.8 0.0
26/05:30pm 33.2 32.4 11.7 27 12.9 NW 7 13 4 7 1011.0 1009.8 0.0
26/05:00pm 33.3 32.3 12.3 28 12.7 WSW 9 19 5 10 1011.0 1009.8 0.0
26/04:30pm 33.5 32.4 13.0 29 12.5 WNW 11 20 6 11 1011.1 1009.9 0.0
26/04:00pm 32.8 31.1 11.3 27 12.8 SSE 11 19 6 10 1011.3 1010.1 0.0
26/03:30pm 32.4 31.3 12.1 29 12.2 SSW 9 17 5 9 1011.5 1010.3 0.0
26/03:00pm 32.1 30.6 11.8 29 12.1 NW 11 28 6 15 1011.7 1010.4 0.0
26/02:30pm 31.7 29.4 13.0 32 11.3 W 17 37 9 20 1012.1 1010.8 0.0
26/02:00pm 30.8 29.6 11.7 31 11.3 SSW 9 22 5 12 1012.4 1011.1 0.0
26/01:30pm 30.7 29.4 12.6 33 10.9 SSE 11 20 6 11 1012.9 1011.7 0.0
26/01:00pm 30.8 29.3 13.1 34 10.7 SW 13 20 7 11 1013.3 1012.1 0.0
26/12:30pm 30.1 29.7 13.0 35 10.3 N 7 15 4 8 1013.7 1012.5 0.0
26/12:00pm 29.7 28.4 12.6 35 10.2 SW 11 20 6 11 1013.8 1012.6 0.0
26/11:30am 29.3 28.6 15.4 42 8.7 WNW 13 20 7 11 1014.1 1012.9 0.0
26/11:00am 28.2 27.4 15.1 44 8.1 WNW 13 20 7 11 1014.5 1013.2 0.0
26/10:30am 27.2 26.3 14.9 47 7.5 WNW 13 17 7 9 1014.7 1013.4 0.0
26/10:00am 25.5 24.8 15.5 54 6.2 WNW 13 20 7 11 1014.9 1013.7 0.0
26/09:30am 24.2 24.1 14.9 56 5.6 WNW 9 17 5 9 1015.1 1013.9 0.0
26/09:00am 22.3 22.7 15.4 65 4.2 W 7 11 4 6 1015.1 1013.9 0.0
26/08:30am 20.1 19.8 14.5 70 3.3 WSW 9 13 5 7 1015.2 1014.0 0.0
26/08:00am 18.2 16.7 14.3 78 2.3 WNW 15 19 8 10 1015.0 1013.8 0.0
26/07:30am 16.9 17.0 14.5 86 1.4 WNW 7 9 4 5 1014.3 1013.1 0.0
26/07:00am 14.8 15.0 14.2 96 0.3 WNW 6 6 3 3 1013.8 1012.6 0.0
26/06:30am 13.1 12.9 12.9 99 0.1 WNW 6 7 3 4 1013.5 1012.3 0.0
26/06:00am 10.9 9.3 10.3 96 0.3 WNW 9 9 5 5 1013.2 1012.0 0.0
26/05:30am 11.0 10.1 10.5 97 0.3 W 6 7 3 4 1013.0 1011.8 0.0
26/05:00am 11.6 11.9 11.0 96 0.3 CALM 0 0 0 0 1012.5 1011.3 0.0
26/04:30am 12.1 11.4 11.5 96 0.3 E 6 6 3 3 1012.3 1011.0 0.0
26/04:00am 11.6 11.8 10.5 93 0.6 CALM 0 0 0 0 1012.2 1010.9 0.0
26/03:30am 12.4 12.9 11.6 95 0.4 CALM 0 0 0 0 1012.4 1011.1 0.0
26/03:00am 12.0 12.2 10.7 92 0.7 CALM 0 0 0 0 1012.3 1011.0 0.0
26/02:30am 12.2 12.5 10.8 91 0.7 CALM 0 0 0 0 1012.5 1011.3 0.0
26/02:00am 13.2 13.8 11.9 92 0.7 CALM 0 0 0 0 1012.7 1011.5 0.0
26/01:30am 13.1 13.4 11.0 87 1.1 CALM 0 0 0 0 1012.8 1011.6 0.0
26/01:00am 14.2 14.9 12.2 88 1.1 CALM 0 0 0 0 1013.0 1011.8 0.0
26/12:30am 14.5 15.1 12.0 85 1.4 CALM 0 0 0 0 1013.2 1012.0 0.0
26/12:00am 16.0 14.9 13.1 83 1.6 ESE 11 15 6 8 1013.4 1012.2 0.0
 
Date/Time
EDT
Temp
°C
App
Temp
°C
Dew
Point
°C
Rel
Hum
%
Delta-T
°C
Wind Press
QNH
hPa
Press
MSL
hPa
Rain since
9am
mm
Dir  Spd
km/h
Gust
km/h
Spd
kts
Gust
kts
25/11:30pm 16.0 14.5 13.1 83 1.6 ESE 13 15 7 8 1013.5 1012.3 0.0
25/11:00pm 17.1 16.2 13.6 80 2.0 E 11 15 6 8 1013.7 1012.5 0.0
25/10:30pm 16.4 15.9 12.6 78 2.1 E 7 11 4 6 1013.5 1012.3 0.0
25/10:00pm 17.5 17.3 13.0 75 2.6 E 6 9 3 5 1013.4 1012.2 0.0
25/09:30pm 19.0 18.2 13.0 68 3.4 E 9 15 5 8 1013.0 1011.8 0.0
25/09:00pm 19.5 18.5 12.3 63 4.1 ENE 9 15 5 8 1012.5 1011.3 0.0
25/08:30pm 19.5 18.6 11.3 59 4.6 ENE 7 11 4 6 1012.3 1011.0 0.0
25/08:00pm 20.3 19.1 10.4 53 5.5 ENE 7 9 4 5 1012.0 1010.7 0.0
25/07:30pm 23.5 21.6 10.6 44 7.3 E 11 15 6 8 1011.8 1010.5 0.0
25/07:00pm 25.1 22.8 10.6 40 8.2 E 13 19 7 10 1011.5 1010.3 0.0
25/06:30pm 26.1 23.7 11.5 40 8.4 ESE 15 20 8 11 1011.2 1010.0 0.0
25/06:00pm 26.6 24.0 10.7 37 9.1 ESE 15 22 8 12 1011.1 1009.9 0.0
25/05:30pm 27.0 25.1 11.9 39 8.8 ESE 13 20 7 11 1011.1 1009.9 0.0
25/05:00pm 26.6 25.0 11.5 39 8.8 SE 11 19 6 10 1011.1 1009.9 0.0
25/04:30pm 27.0 24.9 11.1 37 9.2 ESE 13 19 7 10 1011.3 1010.1 0.0
25/04:00pm 27.7 26.8 13.6 42 8.5 E 11 17 6 9 1011.3 1010.1 0.0
25/03:30pm 26.9 24.7 12.2 40 8.6 ESE 15 24 8 13 1011.8 1010.5 0.0
25/03:00pm 26.9 25.2 12.5 40 8.5 ENE 13 22 7 12 1012.1 1010.8 0.0
25/02:30pm 26.4 25.0 13.5 45 7.7 ESE 13 22 7 12 1012.4 1011.1 0.0
25/02:00pm 26.0 23.4 12.1 42 8.1 ESE 17 28 9 15 1012.8 1011.6 0.0
25/01:30pm 25.2 22.7 12.4 45 7.5 SE 17 28 9 15 1013.1 1011.9 0.0
25/01:00pm 24.8 23.1 12.4 46 7.2 NE 13 20 7 11 1013.4 1012.2 0.0
25/12:30pm 24.7 23.8 14.8 54 6.0 ESE 13 30 7 16 1013.7 1012.5 0.0
25/12:00pm 23.9 21.8 12.5 49 6.6 NE 15 22 8 12 1014.1 1012.9 0.0
25/11:30am 23.3 21.5 13.2 53 5.9 ENE 15 24 8 13 1014.6 1013.3 0.0
25/11:00am 22.7 20.1 12.0 50 6.1 ENE 17 22 9 12 1015.1 1013.9 0.0
25/10:30am 21.9 19.5 12.7 56 5.3 E 17 26 9 14 1015.2 1014.0 0.0
25/10:00am 21.7 19.6 13.6 60 4.8 E 17 26 9 14 1015.5 1014.3 0.0
25/09:30am 20.7 18.0 12.9 61 4.5 ESE 19 32 10 17 1015.6 1014.4 0.0
25/09:00am 20.7 18.5 14.4 67 3.7 ESE 19 30 10 16 1015.6 1014.4 0.2
25/08:30am 19.5 17.1 14.3 72 3.1 E 20 28 11 15 1015.5 1014.3 0.2
25/08:00am 18.6 16.3 14.7 78 2.3 ESE 20 28 11 15 1015.4 1014.2 0.2

Other formats

Comma delimited format used in spreadsheet applications
http://www.bom.gov.au/fwo/IDN60801/IDN60801.95754.axf

JavaScript Object Notation format (JSON) in row-major order
http://www.bom.gov.au/fwo/IDN60801/IDN60801.95754.json

Data quality

Most of these data are generated automatically and are frequently updated. Quality checks on data are not normally performed. It is possible for incorrect values to appear. Refer to information at About Latest Weather Observations and please check the disclaimer before using these data.